Flight Track Log - Related Links

Times and Time Zones

All times are in EDT time to prevent confusion due to time zone crossing. See the UPS1191 flight status page for this flight to view local times or setup timezone preferences in your user account.


Time Position Orientation Groundspeed Altitude Reporting Facility
EDT Latitude Longitude Course Direction KTS MPH feet Rate Location/Type
Tue 10:43:29 PM 39.8743 -75.2245 76° East 165 190 1,100  Level FlightAware ADS-B
Tue 10:43:33 PM 39.8751 -75.2208 74° East 167 192 1,300 2,571 Climbing FlightAware ADS-B
Tue 10:43:43 PM 39.8775 -75.2109 72° East 179 206 1,700 2,160 Climbing FlightAware ADS-B
Tue 10:43:58 PM 39.8815 -75.1949 72° East 196 226 2,200 2,625 Climbing FlightAware ADS-B
Tue 10:44:15 PM 39.8860 -75.1762 73° East 196 226 3,100 3,375 Climbing FlightAware ADS-B
Tue 10:44:30 PM 39.8903 -75.1595 71° East 195 224 4,000 3,214 Climbing FlightAware ADS-B
Tue 10:44:43 PM 39.8943 -75.1445 71° East 205 236 4,600 2,625 Climbing FlightAware ADS-B
Tue 10:44:46 PM 39.8955 -75.1403 70° East 206 237 4,700 2,571 Climbing FlightAware ADS-B
Tue 10:44:50 PM 39.8972 -75.1359 63° Northeast 208 239 4,900 3,000 Climbing FlightAware ADS-B
Tue 10:44:54 PM 39.8992 -75.1318 58° Northeast 210 242 5,100 2,667 Climbing FlightAware ADS-B
Tue 10:44:59 PM 39.9021 -75.1277 47° Northeast 213 245 5,300 2,250 Climbing FlightAware ADS-B
Tue 10:45:02 PM 39.9046 -75.1251 39° Northeast 215 247 5,400 2,571 Climbing FlightAware ADS-B
Tue 10:45:06 PM 39.9079 -75.1227 29° Northeast 216 249 5,600 2,571 Climbing FlightAware ADS-B
Tue 10:45:09 PM 39.9113 -75.1212 19° North 218 251 5,700 3,000 Climbing FlightAware ADS-B
Tue 10:45:12 PM 39.9143 -75.1206 North 219 252 5,900 3,429 Climbing FlightAware ADS-B
Tue 10:45:16 PM 39.9184 -75.1206 360° North 220 253 6,100 3,000 Climbing FlightAware ADS-B
Tue 10:45:22 PM 39.9242 -75.1224 347° North 222 255 6,400 4,000 Climbing FlightAware ADS-B
Tue 10:45:25 PM 39.9273 -75.1245 333° Northwest 223 257 6,700 4,286 Climbing FlightAware ADS-B
Tue 10:45:29 PM 39.9304 -75.1272 326° Northwest 225 259 6,900 3,000 Climbing FlightAware ADS-B
Tue 10:45:33 PM 39.9336 -75.1313 316° Northwest 230 265 7,100 2,250 Climbing FlightAware ADS-B
Tue 10:45:37 PM 39.9361 -75.1351 311° West 235 270 7,200 2,211 Climbing FlightAware ADS-B
Tue 10:45:52 PM 39.9466 -75.1519 309° West 248 285 7,800 2,211 Climbing FlightAware ADS-B
Tue 10:45:56 PM 39.9501 -75.1572 311° West 255 293 7,900 1,333 Climbing FlightAware ADS-B
Tue 10:46:01 PM 39.9536 -75.1623 312° West 263 303 8,000 2,400 Climbing FlightAware ADS-B
Tue 10:46:16 PM 39.9662 -75.1802 313° West 268 308 8,700 2,903 Climbing FlightAware ADS-B
Tue 10:46:32 PM 39.9795 -75.1993 312° West 269 310 9,500 2,250 Climbing FlightAware ADS-B
Tue 10:46:48 PM 39.9934 -75.2192 312° West 290 334 9,900 766 Climbing FlightAware ADS-B
Tue 10:47:19 PM 40.0245 -75.2648 312° West 349 402 10,100 1,065 Climbing FlightAware ADS-B
Tue 10:47:50 PM 40.0585 -75.3150 312° West 367 422 11,000 2,459 Climbing FlightAware ADS-B
Tue 10:48:20 PM 40.0891 -75.3603 311° West 298 343 12,600 2,000 Climbing FlightAware ADS-B
Tue 10:48:50 PM 40.1156 -75.4001 311° West 286 329 13,000 500 Climbing FlightAware ADS-B
Tue 10:49:20 PM 40.1422 -75.4399 311° West 283 326 13,100 197 Climbing FlightAware ADS-B
Tue 10:49:51 PM 40.1695 -75.4808 311° West 291 335 13,200 984 Climbing FlightAware ADS-B
Tue 10:50:21 PM 40.1979 -75.5233 311° West 317 365 14,100 2,066 Climbing FlightAware ADS-B
Tue 10:50:52 PM 40.2281 -75.5686 311° West 327 376 15,300 2,419 Climbing FlightAware ADS-B
Tue 10:51:23 PM 40.2595 -75.6159 311° West 332 382 16,600 1,742 Climbing FlightAware ADS-B
Tue 10:51:54 PM 40.2916 -75.6643 311° West 328 377 17,100 484 Climbing FlightAware ADS-B
Tue 10:52:25 PM 40.3221 -75.7104 311° West 332 382 17,100  Level FlightAware ADS-B
Tue 10:52:55 PM 40.3526 -75.7565 311° West 333 383 17,100  Level FlightAware ADS-B
Tue 10:53:25 PM 40.3841 -75.8042 311° West 337 388 17,100  Level FlightAware ADS-B
Tue 10:53:56 PM 40.4154 -75.8515 311° West 335 386 17,100  Level FlightAware ADS-B
Tue 10:54:03 PM 40.4228 -75.8630 310° West 334 384 17,100  Level FlightAware ADS-B
Tue 10:54:09 PM 40.4286 -75.8731 307° West 333 383 17,100  Level FlightAware ADS-B
Tue 10:54:20 PM 40.4369 -75.8916 301° West 330 380 17,100  Level FlightAware ADS-B
Tue 10:54:27 PM 40.4411 -75.9046 293° West 328 377 17,100  Level FlightAware ADS-B
Tue 10:54:32 PM 40.4433 -75.9133 288° West 328 377 17,100  Level FlightAware ADS-B
Tue 10:55:06 PM 40.4549 -75.9810 283° West 329 379 17,100  Level FlightAware ADS-B
Tue 10:55:37 PM 40.4643 -76.0411 282° West 329 379 17,100 387 Level FlightAware ADS-B
Tue 10:56:08 PM 40.4745 -76.1038 282° West 345 397 17,500 1,015 Climbing FlightAware ADS-B
Tue 10:56:42 PM 40.4887 -76.1767 284° West 372 428 18,200 1,200 Climbing FlightAware ADS-B
Tue 10:57:13 PM 40.5023 -76.2463 284° West 392 451 18,800 1,138 Climbing FlightAware ADS-B
Tue 10:57:40 PM 40.5156 -76.3089 286° West 408 470 19,300 1,371 Climbing FlightAware ADS-B
Tue 10:57:48 PM 40.5223 -76.3284 294° West 409 471 19,600 3,628 Climbing FlightAware ADS-B
Tue 10:58:23 PM 40.5559 -76.3983 302° West 383 441 21,900 3,333 Climbing FlightAware ADS-B
Tue 10:59:00 PM 40.5920 -76.4680 304° West 372 428 23,600 2,681 Climbing FlightAware ADS-B
Tue 10:59:10 PM 40.6032 -76.4883 306° West 377 434 24,000 2,488 Climbing FlightAware ADS-B
Tue 10:59:41 PM 40.6341 -76.5456 305° West 374 430 25,300 2,400 Climbing FlightAware ADS-B
Tue 11:00:00 PM 40.6516 -76.5827 302° West 372 428 26,000 2,368 Climbing FlightAware ADS-B
Tue 11:00:19 PM 40.6650 -76.6214 295° West 370 426 26,800 2,368 Climbing FlightAware ADS-B
Tue 11:00:38 PM 40.6745 -76.6626 287° West 372 428 27,500 1,556 Climbing FlightAware ADS-B
Tue 11:01:13 PM 40.6890 -76.7417 284° West 383 441 28,200 1,109 Climbing FlightAware ADS-B
Tue 11:02:10 PM 40.7137 -76.8793 283° West 418 481 29,200 1,046 Climbing FlightAware ADS-B
Tue 11:03:02 PM 40.7367 -77.0102 283° West 431 496 30,100 1,301 Climbing FlightAware ADS-B
Tue 11:03:33 PM 40.7504 -77.0886 283° West 430 495 31,000 1,742 Climbing FlightAware ADS-B
Tue 11:04:04 PM 40.7640 -77.1693 283° West 424 488 31,900 822 Climbing FlightAware ADS-B
Tue 11:04:46 PM 40.7817 -77.2741 283° West 417 480 32,000 54 Climbing FlightAware ADS-B
Tue 11:05:55 PM 40.8090 -77.4260 283° West 430 495 32,000  Level FlightAware ADS-B
Tue 11:06:41 PM 40.8340 -77.5620 284° West 429 494 32,000  Level FlightAware ADS-B
Tue 11:07:26 PM 40.8540 -77.6760 283° West 429 494 32,000  Level FlightAware ADS-B
Tue 11:08:06 PM 40.8730 -77.7810 283° West 429 494 32,000  Level FlightAware ADS-B
Tue 11:08:46 PM 40.8910 -77.8830 283° West 429 494 32,000  Level FlightAware ADS-B
Tue 11:09:29 PM 40.9080 -77.9870 282° West 428 493 32,000  Level FlightAware ADS-B
Tue 11:10:14 PM 40.9280 -78.1030 283° West 429 494 32,000  Level FlightAware ADS-B
Tue 11:10:54 PM 40.9450 -78.2040 283° West 428 493 32,000  Level FlightAware ADS-B
Tue 11:11:36 PM 40.9600 -78.2970 282° West 428 493 32,000  Level FlightAware ADS-B
Tue 11:12:19 PM 40.9810 -78.4210 283° West 421 484 32,000  Level FlightAware ADS-B
Tue 11:12:59 PM 40.9970 -78.5220 282° West 419 482 32,000  Level FlightAware ADS-B
Tue 11:13:39 PM 41.0130 -78.6220 282° West 418 481 32,000  Level FlightAware ADS-B
Tue 11:14:24 PM 41.0310 -78.7320 282° West 417 480 32,000  Level FlightAware ADS-B
Tue 11:15:04 PM 41.0470 -78.8320 282° West 416 479 32,000  Level FlightAware ADS-B
Tue 11:15:49 PM 41.0650 -78.9460 282° West 415 478 32,000  Level FlightAware ADS-B
Tue 11:16:29 PM 41.0810 -79.0480 282° West 415 478 32,000  Level FlightAware ADS-B
Tue 11:17:14 PM 41.0980 -79.1580 282° West 414 476 32,000  Level FlightAware ADS-B
Tue 11:17:54 PM 41.1130 -79.2550 282° West 414 476 32,000  Level FlightAware ADS-B
Tue 11:18:34 PM 41.1290 -79.3590 282° West 415 478 32,000  Level FlightAware ADS-B
Tue 11:19:14 PM 41.1440 -79.4570 282° West 414 476 32,000  Level FlightAware ADS-B
Tue 11:19:59 PM 41.1610 -79.5690 281° West 414 476 32,000  Level FlightAware ADS-B
Tue 11:20:39 PM 41.1760 -79.6700 281° West 414 476 32,000  Level FlightAware ADS-B
Tue 11:21:26 PM 41.1950 -79.7950 281° West 414 476 32,000  Level FlightAware ADS-B
Tue 11:22:14 PM 41.2100 -79.8960 281° West 413 475 32,000  Level FlightAware ADS-B
Tue 11:23:01 PM 41.2280 -80.0170 281° West 412 474 32,000  Level FlightAware ADS-B
Tue 11:23:44 PM 41.2440 -80.1260 281° West 412 474 32,000  Level FlightAware ADS-B
Tue 11:24:20 PM 41.2570 -80.2130 281° West 412 474 32,000  Level FlightAware ADS-B
Tue 11:25:04 PM 41.2740 -80.3260 281° West 413 475 32,000  Level FlightAware ADS-B
Tue 11:25:50 PM 41.2900 -80.4390 281° West 413 475 32,000  Level FlightAware ADS-B
Tue 11:26:29 PM 41.3040 -80.5380 281° West 412 474 32,000  Level FlightAware ADS-B
Tue 11:27:14 PM 41.3200 -80.6470 281° West 411 473 32,000  Level FlightAware ADS-B
Tue 11:27:59 PM 41.3360 -80.7640 280° West 410 472 32,000  Level FlightAware ADS-B
Tue 11:28:39 PM 41.3510 -80.8700 281° West 410 472 32,000  Level FlightAware ADS-B
Tue 11:29:23 PM 41.3670 -80.9790 281° West 411 473 32,000  Level FlightAware ADS-B
Tue 11:30:03 PM 41.3810 -81.0780 281° West 412 474 32,000  Level FlightAware ADS-B
Tue 11:30:47 PM 41.3960 -81.1890 280° West 410 472 32,000  Level FlightAware ADS-B
Tue 11:31:26 PM 41.4100 -81.2880 281° West 409 471 32,000  Level FlightAware ADS-B
Tue 11:32:08 PM 41.4240 -81.3910 280° West 409 471 32,000  Level FlightAware ADS-B
Tue 11:32:52 PM 41.4390 -81.5030 280° West 410 472 32,000  Level FlightAware ADS-B
Tue 11:33:30 PM 41.4510 -81.5960 280° West 410 472 32,000  Level FlightAware ADS-B
Tue 11:34:16 PM 41.4670 -81.7130 280° West 411 473 32,000  Level FlightAware ADS-B
Tue 11:34:55 PM 41.4800 -81.8090 280° West 411 473 32,000  Level FlightAware ADS-B
Tue 11:35:53 PM 41.4980 -81.9530 280° West 413 475 32,000  Level FlightAware ADS-B
Tue 11:36:33 PM 41.5110 -82.0540 280° West 415 478 32,000  Level FlightAware ADS-B
Tue 11:37:15 PM 41.5250 -82.1630 280° West 417 480 32,000  Level FlightAware ADS-B
Tue 11:37:59 PM 41.5400 -82.2740 280° West 419 482 32,000  Level FlightAware ADS-B
Tue 11:38:39 PM 41.5520 -82.3740 279° West 422 486 32,000  Level FlightAware ADS-B
Tue 11:39:24 PM 41.5670 -82.4870 280° West 401 461 32,000 929 Level FlightAware ADS-B
Tue 11:40:03 PM 41.5790 -82.5850 279° West 389 448 33,300 1,519 Climbing FlightAware ADS-B
Tue 11:40:43 PM 41.5910 -82.6770 280° West 367 422 34,000 488 Climbing FlightAware ADS-B
Tue 11:41:29 PM 41.6030 -82.7810 279° West 379 436 34,000  Level FlightAware ADS-B
Tue 11:42:11 PM 41.6150 -82.8800 279° West 381 438 34,000  Level FlightAware ADS-B
Tue 11:42:52 PM 41.6260 -82.9730 279° West 384 442 34,000  Level FlightAware ADS-B
Tue 11:43:34 PM 41.6390 -83.0750 280° West 390 449 34,000  Level FlightAware ADS-B
Tue 11:44:18 PM 41.6510 -83.1800 279° West 397 457 34,000  Level FlightAware ADS-B
Tue 11:44:58 PM 41.6620 -83.2780 279° West 398 458 34,000  Level FlightAware ADS-B
Tue 11:45:36 PM 41.6730 -83.3700 279° West 399 459 34,000  Level FlightAware ADS-B
Tue 11:46:24 PM 41.6860 -83.4870 279° West 399 459 34,000  Level FlightAware ADS-B
Tue 11:47:06 PM 41.6980 -83.5930 279° West 399 459 34,000  Level FlightAware ADS-B
Tue 11:47:46 PM 41.7090 -83.6890 279° West 400 460 34,000  Level FlightAware ADS-B
Tue 11:48:30 PM 41.7220 -83.7960 279° West 401 461 34,000  Level FlightAware ADS-B
Tue 11:49:10 PM 41.7330 -83.8960 278° West 401 461 34,000  Level FlightAware ADS-B
Tue 11:50:06 PM 41.7490 -84.0340 279° West 401 461 34,000  Level FlightAware ADS-B
Tue 11:50:48 PM 41.7610 -84.1380 279° West 402 463 34,000  Level FlightAware ADS-B
Tue 11:51:32 PM 41.7730 -84.2470 278° West 403 464 34,000  Level FlightAware ADS-B
Tue 11:52:11 PM 41.7840 -84.3440 279° West 405 466 34,000  Level FlightAware ADS-B
Tue 11:52:57 PM 41.7960 -84.4570 278° West 406 467 34,000  Level FlightAware ADS-B
Tue 11:53:39 PM 41.8080 -84.5660 278° West 408 470 34,000  Level FlightAware ADS-B
Tue 11:54:16 PM 41.8170 -84.6530 278° West 407 468 34,000  Level FlightAware ADS-B
Tue 11:55:03 PM 41.8300 -84.7740 278° West 407 468 34,000  Level FlightAware ADS-B
Tue 11:55:43 PM 41.8400 -84.8750 278° West 408 470 34,000  Level FlightAware ADS-B
Tue 11:56:25 PM 41.8520 -84.9840 278° West 408 470 34,000  Level FlightAware ADS-B
Tue 11:57:09 PM 41.8630 -85.0940 278° West 407 468 34,000  Level FlightAware ADS-B
Tue 11:57:49 PM 41.8730 -85.1950 278° West 408 470 34,000  Level FlightAware ADS-B
Tue 11:58:33 PM 41.8840 -85.3040 278° West 403 464 34,000  Level FlightAware ADS-B
Tue 11:59:14 PM 41.8940 -85.4080 277° West 395 455 34,000  Level FlightAware ADS-B
Tue 11:59:55 PM 41.9040 -85.5040 278° West 393 452 34,000  Level FlightAware ADS-B
Wed 12:00:39 AM 41.9140 -85.6100 277° West 393 452 34,000  Level FlightAware ADS-B
Wed 12:01:17 AM 41.9230 -85.7000 278° West 394 453 34,000  Level FlightAware ADS-B
Wed 12:02:03 AM 41.9340 -85.8180 277° West 396 456 34,000  Level FlightAware ADS-B
Wed 12:02:43 AM 41.9420 -85.9150 276° West 397 457 34,000  Level FlightAware ADS-B
Wed 12:03:26 AM 41.9520 -86.0210 277° West 398 458 34,000  Level FlightAware ADS-B
Wed 12:04:10 AM 41.9620 -86.1290 277° West 400 460 34,000 -143 Level FlightAware ADS-B
Wed 12:04:50 AM 41.9710 -86.2320 277° West 399 459 33,800 -711 Descending FlightAware ADS-B
Wed 12:05:26 AM 41.9790 -86.3160 277° West 403 464 33,100 -1,244 Descending FlightAware ADS-B
Wed 12:06:12 AM 41.9900 -86.4370 277° West 407 468 32,100 -1,239 Descending FlightAware ADS-B
Wed 12:06:58 AM 42.0000 -86.5520 277° West 411 473 31,200 -1,256 Descending FlightAware ADS-B
Wed 12:07:38 AM 42.0090 -86.6520 277° West 416 479 30,300 -1,463 Descending FlightAware ADS-B
Wed 12:08:20 AM 42.0190 -86.7630 277° West 422 486 29,200 -1,326 Descending FlightAware ADS-B
Wed 12:09:04 AM 42.0280 -86.8750 276° West 422 486 28,400 -1,214 Descending FlightAware ADS-B
Wed 12:09:44 AM 42.0370 -86.9760 277° West 416 479 27,500 -2,133 Descending FlightAware ADS-B
Wed 12:10:34 AM 42.0480 -87.1080 276° West 406 467 25,200 -2,732 Descending FlightAware ADS-B
Wed 12:11:36 AM 42.0610 -87.2560 277° West 397 457 22,400 -2,743 Descending FlightAware ADS-B
Wed 12:12:19 AM 42.0700 -87.3680 276° West 391 450 20,400 -1,735 Descending FlightAware ADS-B
Wed 12:12:59 AM 42.0770 -87.4640 276° West 384 442 20,000 -282 Descending FlightAware ADS-B
Wed 12:13:44 AM 42.0860 -87.5720 276° West 387 445 20,000  Level FlightAware ADS-B
Wed 12:14:24 AM 42.0940 -87.6670 277° West 389 448 20,000  Level FlightAware ADS-B
Wed 12:14:59 AM 42.1000 -87.7490 276° West 390 449 20,000 -286 Level FlightAware ADS-B
Wed 12:15:48 AM 42.1100 -87.8720 276° West 382 440 19,600 -1,385 Descending FlightAware ADS-B
Wed 12:16:30 AM 42.1170 -87.9670 276° West 377 434 17,900 -2,538 Descending FlightAware ADS-B
Wed 12:17:06 AM 42.1230 -88.0530 275° West 372 428 16,300 -1,465 Descending FlightAware ADS-B
Wed 12:17:56 AM 42.1320 -88.1700 276° West 370 426 15,800 -400 Descending FlightAware ADS-B
Wed 12:18:36 AM 42.1390 -88.2620 276° West 363 418 15,700 -2,325 Descending FlightAware ADS-B
Wed 12:19:16 AM 42.1460 -88.3510 276° West 351 404 12,700 -3,214 Descending FlightAware ADS-B
Wed 12:20:00 AM 42.1540 -88.4400 277° West 307 353 11,200 -1,286 Descending FlightAware ADS-B
Wed 12:20:40 AM 42.1600 -88.5140 276° West 289 333 10,900 -220 Descending FlightAware ADS-B
Wed 12:21:22 AM 42.1670 -88.5890 277° West 287 330 10,900 -68 Level FlightAware ADS-B
Wed 12:22:08 AM 42.1740 -88.6700 277° West 286 329 10,800 -359 Descending FlightAware ADS-B
Wed 12:23:19 AM 42.1820 -88.7660 276° West 279 321 10,200 -1,750 Descending FlightAware ADS-B
Wed 12:23:44 AM 42.1860 -88.8080 277° West 272 313 8,000 -5,419 Descending FlightAware ADS-B
Wed 12:24:21 AM 42.1680 -88.8870 253° West 244 281 4,600 -4,211 Descending FlightAware ADS-B
Wed 12:24:41 AM 42.1560 -88.9110 236° Southwest 217 250 4,000 -1,404 Descending FlightAware ADS-B
Wed 12:25:08 AM 42.1450 -88.9420 244° Southwest 183 211 3,500 -1,200 Descending FlightAware ADS-B
Wed 12:25:21 AM 42.1410 -88.9530 244° Southwest 175 201 3,200 -931 Descending FlightAware ADS-B
Wed 12:26:06 AM 42.1280 -88.9960 248° West 151 174 2,600 -985 Descending FlightAware ADS-B
Wed 12:26:28 AM 42.1230 -89.0160 251° West 152 175 2,100 -923 Descending FlightAware ADS-B
Wed 12:26:58 AM 42.1170 -89.0440 254° West 143 165 1,800 -310 Descending FlightAware ADS-B
Wed 12:27:26 AM 42.1120 -89.0670 254° West 143 165 1,800  Level FlightAware ADS-B
Wed 12:27:56 AM 42.1180 -89.0890 290° West 128 147 1,800 -286 Level FlightAware ADS-B
Wed 12:28:08 AM 42.1250 -89.0930 337° Northwest 120 138 1,600 -536 Descending FlightAware ADS-B
Wed 12:28:52 AM 42.1480 -89.0960 354° North 114 131 1,300 -493 Descending FlightAware ADS-B
Wed 12:29:21 AM 42.1620 -89.0940 North 114 131 1,000 -526 Descending FlightAware ADS-B
Wed 12:29:49 AM 42.1770 -89.0920 North 115 132 800 -316 Descending FlightAware ADS-B
Wed 12:30:18 AM 42.1910 -89.0910 North 116 133 700 -207 Descending FlightAware ADS-B

Login

Don't have an account? Register now (free) for customized features, flight alerts, and more!